Park, KS

9:59 AM CDT on October 02, 2014 (GMT -0500)
South Gove | Change Station
CLOSE
Current Station
Personal Weather Station
Location: Gove, KS
Elevation: 2620 ft
Nearby Weather Stations

Elev 2620 ft 38.81 °N, 100.46 °W | Updated 13 minutes ago

Mostly Cloudy
Mostly Cloudy
52.7 °F
Feels Like 52.7 °F
N
20.2
Wind Variable Wind from NW

Today
High -- | Low -- °F
--% Chance of Precip.
Yesterday
High -- | Low -- °F
Precip. -- in
7:37 AM 7:21 PM
First Quarter, 59% visible
Pressure 29.94 in
Visibility 10.0 miles
Clouds Scattered Clouds 4500 ft
Dew Point 47 °F
Humidity 82%
Rainfall 0.00 in
Snow Depth Not available.
UV 2 out of 12
Pollen .50 out of 12
Air Quality Not available.
Flu Activity Not available.
METAR KHLC 021453Z AUTO 34020G25KT 10SM SCT045 13/10 A2997 RMK AO2 PK WND 33026/1434 SLP138 T01280100 50019

More Conditions Fewer Conditions

Pressure 29.94 in
Visibility 10.0 miles
Clouds Scattered Clouds 4500 ft
Dew Point 47 °F
Humidity 82%
Rainfall 0.00 in
Snow Depth Not available.
UV 2 out of 12
Pollen .50 out of 12
Air Quality Not available.
Flu Activity Not available.
METAR KHLC 021453Z AUTO 34020G25KT 10SM SCT045 13/10 A2997 RMK AO2 PK WND 33026/1434 SLP138 T01280100 50019

More Conditions Fewer Conditions

10-Day Weather Forecast

Almanac

Astronomy

Oct. 02, 2014 Rise Set
Actual Time 7:37 AM CDT 7:21 PM CDT
Civil Twilight 7:11 AM CDT 7:48 PM CDT
Nautical Twilight 6:40 AM CDT 8:19 PM CDT
Astronomical Twilight 6:09 AM CDT 8:50 PM CDT
Moon 3:27 PM CDT 12:59 AM CDT
Length of Visible Light 12h 37m
Length of Day
11h 44m
Tomorrow will be 2m 32s shorter.
First Quarter, 59% of the Moon is Illuminated
Today
First Quarter
Oct 8
Full
Oct 15
Last Quarter
Oct 23
New
Oct 30
First Quarter

Today's Extremes

State Highs State Lows

Community

WunderPhotos

Upload Photos

1,758,257 photos uploaded!

WunderBlogs® & News

Nearby

Snow Depth

Station Depth Elevation
No new snow has been reported.

Earthquake Activity

City Distance Mag. Time & Date
No recent earthquake activity has been reported nearby.
Minimum magnitude displayed is 2.5.

Coastal Water Temperatures

Place Temperature
No Stations Reporting

Nearby Weather Stations